Caribbean Princess — ZCDG8 — position and weather

sailwx.info

Track history (hours):
 
Tides and Currents Weather Stations Pressure Air Temp Water Temp Dewpoint Dewpoint Depression Visibility Wind Speed Wind Dir Waves Ship Positions

Caribbean Princess

Operator: Princess Cruises

Last reported at 2019-Apr-13 23:08 UTC. Time now 2019-Apr-24 22:21 UTC.
Position N 26°16' W 079°31'.
Warning: this ship's position is 10 days out of date.

Type: Passenger vessel. MMSI: 310423000.

Date/timePositionNaut miles runAvg speedWind from/ knotsBaromVisibWave heightAir tempDewpointWater temp
2019-Apr-13 23:08N 26°16' W 079°31'320.0
2019-Apr-13 23:00N 26°15' W 079°33'1020.2
2019-Apr-13 22:30N 26°12' W 079°44'1020.1
2019-Apr-13 22:00N 26°09' W 079°55'918.0
2019-Apr-13 21:31N 26°06' W 080°04'3 5.5
2019-Apr-13 21:01N 26°06' W 080°07'0 0.0
2019-Apr-13 20:29N 26°06' W 080°07'0 0.0
2019-Apr-13 19:58N 26°06' W 080°07'0 0.0
2019-Apr-13 19:28N 26°06' W 080°07'0 0.0
2019-Apr-13 19:00N 26°06' W 080°07'506956.4
2019-Apr-13 18:29N 20°29' W 086°59'506978.5
2019-Apr-13 17:58N 26°06' W 080°07'0 0.0
2019-Apr-13 17:28N 26°06' W 080°07'0 0.0
2019-Apr-13 17:00N 26°06' W 080°07'0 0.0
2019-Apr-13 16:28N 26°06' W 080°07'0 0.0
2019-Apr-13 16:00N 26°06' W 080°07'0 0.0
2019-Apr-13 15:30N 26°06' W 080°07'0 0.0
2019-Apr-13 14:59N 26°06' W 080°07'0 0.0
2019-Apr-13 14:26N 26°06' W 080°07'0 0.0
2019-Apr-13 13:58N 26°06' W 080°07'0 0.0
2019-Apr-13 13:28N 26°06' W 080°07'0 0.0
2019-Apr-13 13:00N 26°06' W 080°07'231456.8
2019-Apr-13 12:29N 24°38' W 076°11'231451.1
2019-Apr-13 11:59N 26°06' W 080°07'0 0.0
2019-Apr-13 11:29N 26°06' W 080°07'0 0.0
2019-Apr-13 10:58N 26°06' W 080°07'0 0.0
2019-Apr-13 10:30N 26°06' W 080°07'0 0.3
2019-Apr-13 10:00N 26°06' W 080°07'3 6.3
2019-Apr-13 09:30N 26°06' W 080°04'612.3
2019-Apr-13 09:00N 26°06' W 079°57'713.9
2019-Apr-13 08:30N 26°06' W 079°49'713.7
2019-Apr-13 08:00N 26°07' W 079°41'1514.5
2019-Apr-13 07:00N 26°09' W 079°25'50018.5
2019-Apr-12 04:00N 22°42' W 071°06'45918.4 010 / 291015.110.8 23.821.427.0
2019-Apr-11 03:00N 18°54' W 064°00'5615.9 110 / 191015.410.8 25.020.727.0
2019-Apr-10 23:26N 18°11' W 063°22'818.9
2019-Apr-10 23:00N 18°05' W 063°16'916.4
2019-Apr-10 22:29N 18°01' W 063°08'5 9.3
2019-Apr-10 21:59N 18°01' W 063°03'0 0.0
2019-Apr-10 21:22N 18°01' W 063°03'0 0.0
2019-Apr-10 20:58N 18°01' W 063°03'0 0.0
2019-Apr-10 20:30N 18°01' W 063°03'0 0.0
2019-Apr-10 20:00N 18°01' W 063°03'0 0.0
2019-Apr-10 19:30N 18°01' W 063°03'0 0.0
2019-Apr-10 18:45N 18°01' W 063°03'0 0.0
2019-Apr-10 18:08N 18°01' W 063°03'0 0.0
2019-Apr-10 17:59N 18°01' W 063°03'0 0.0
2019-Apr-10 17:26N 18°01' W 063°03'0 0.0
2019-Apr-10 16:52N 18°01' W 063°03'0 0.0
2019-Apr-10 16:20N 18°01' W 063°03'0 0.0
2019-Apr-10 15:44N 18°01' W 063°03'0 0.0
2019-Apr-10 15:26N 18°01' W 063°03'0 0.0
2019-Apr-10 14:58N 18°01' W 063°03'0 0.0
2019-Apr-10 14:01N 18°01' W 063°03'0 0.0
2019-Apr-10 13:55N 18°01' W 063°03'0 0.0
2019-Apr-10 13:23N 18°01' W 063°03'0 0.0
2019-Apr-10 12:53N 18°01' W 063°03'0 0.0
2019-Apr-10 12:23N 18°01' W 063°03'0 0.0
2019-Apr-10 11:59N 18°01' W 063°03'0 0.0
2019-Apr-10 11:25N 18°01' W 063°03'0 0.0
2019-Apr-10 10:45N 18°01' W 063°03'16 8.5
2019-Apr-10 08:52N 18°02' W 063°20'612.2
2019-Apr-10 08:24N 18°02' W 063°26'511.8
2019-Apr-10 08:00N 18°03' W 063°31'712.2
2019-Apr-10 07:24N 18°03' W 063°38'3625.9
2019-Apr-10 06:00N 18°00' W 063°00'9140.4 090 / 261014.410.8 25.020.727.0
2019-Apr-10 03:45N 18°09' W 064°35'414.0
2019-Apr-10 03:29N 18°10' W 064°39'714.2
2019-Apr-10 03:00N 18°11' W 064°46'713.5
2019-Apr-10 02:31N 18°13' W 064°53'94545.1
2019-Apr-10 02:20N 16°39' W 064°52'100302.4
2019-Apr-10 02:00N 18°19' W 064°55'1 4.5
2019-Apr-10 01:40N 18°20' W 064°55'0 0.8
2019-Apr-10 01:29N 18°20' W 064°55'010.7
2019-Apr-10 01:28N 18°20' W 064°55'0 0.2
2019-Apr-10 01:00N 18°20' W 064°55'0 4.6
2019-Apr-10 00:59N 18°20' W 064°55'0 0.0
2019-Apr-10 00:30N 18°20' W 064°55'0 0.9
2019-Apr-10 00:24N 18°20' W 064°55'0 0.1
2019-Apr-10 00:00N 18°20' W 064°55'0 0.6
2019-Apr-09 23:51N 18°20' W 064°55'0 0.0
2019-Apr-09 23:28N 18°20' W 064°55'0 0.0
2019-Apr-09 23:00N 18°20' W 064°55'0 0.0
2019-Apr-09 22:30N 18°20' W 064°55'0 0.0
2019-Apr-09 22:00N 18°20' W 064°55'0 0.0
2019-Apr-09 21:28N 18°20' W 064°55'0 0.0
2019-Apr-09 20:52N 18°20' W 064°55'0 0.0
2019-Apr-09 20:22N 18°20' W 064°55'0 0.0
2019-Apr-09 20:00N 18°20' W 064°55'0 0.0
2019-Apr-09 19:30N 18°20' W 064°55'0 0.0
2019-Apr-09 19:00N 18°20' W 064°55'0 0.0
2019-Apr-09 18:30N 18°20' W 064°55'0 0.0
2019-Apr-09 18:00N 18°20' W 064°55'0 0.0
2019-Apr-09 17:27N 18°20' W 064°55'0 0.0
2019-Apr-09 16:38N 18°20' W 064°55'0 0.0
2019-Apr-09 16:28N 18°20' W 064°55'0 0.0
2019-Apr-09 15:58N 18°20' W 064°55'0 0.0
2019-Apr-09 15:29N 18°20' W 064°55'1 1.1
2019-Apr-09 15:00N 18°20' W 064°56'4 7.8
2019-Apr-09 14:30N 18°17' W 064°59'713.7
2019-Apr-09 14:00N 18°18' W 065°06'815.1
2019-Apr-09 13:30N 18°24' W 065°10'815.1
2019-Apr-09 13:00N 18°29' W 065°17'816.6
2019-Apr-09 12:30N 18°33' W 065°24'816.9
2019-Apr-09 12:00N 18°38' W 065°32'816.9
2019-Apr-09 11:31N 18°42' W 065°39'917.0
2019-Apr-09 11:01N 18°47' W 065°47'13616.9
2019-Apr-09 03:00N 20°00' W 067°48'38619.3 100 / 261018.110.8 25.020.727.0
2019-Apr-08 07:00N 23°48' W 073°24'7318.1 080 / 251017.7 5.4 25.020.727.0
2019-Apr-08 03:00N 23°18' W 074°36'22210.1 080 / 251019.710.8 24.521.727.0
2019-Apr-07 05:00N 25°42' W 077°42'12216.3 100 / 251021.110.8 24.521.727.0
2019-Apr-06 21:31N 26°06' W 079°55'815.6
2019-Apr-06 21:00N 26°06' W 080°04'3 6.1
2019-Apr-06 20:30N 26°06' W 080°07'0 0.1
2019-Apr-06 20:00N 26°06' W 080°07'0 0.2
2019-Apr-06 19:34N 26°06' W 080°07'0 1.5
2019-Apr-06 19:30N 26°06' W 080°07'0 1.3
2019-Apr-06 19:26N 26°06' W 080°07'0 0.2
2019-Apr-06 19:00N 26°06' W 080°07'0101.0
2019-Apr-06 19:00N 26°06' W 080°07'0 0.1
2019-Apr-06 18:30N 26°06' W 080°07'057.2
2019-Apr-06 18:30N 26°06' W 080°07'0 0.0
2019-Apr-06 18:00N 26°06' W 080°07'0 0.0
2019-Apr-06 17:30N 26°06' W 080°07'0 0.0
2019-Apr-06 17:00N 26°06' W 080°07'0 0.0
2019-Apr-06 16:30N 26°06' W 080°07'0 0.0
2019-Apr-06 16:00N 26°06' W 080°07'0 0.0
2019-Apr-06 15:30N 26°06' W 080°07'0 0.4
2019-Apr-06 15:07N 26°06' W 080°07'0 1.3
2019-Apr-06 15:00N 26°06' W 080°07'0 3.2
2019-Apr-06 14:59N 26°06' W 080°07'0 0.1
2019-Apr-06 14:30N 26°06' W 080°07'0 0.0
2019-Apr-06 14:00N 26°06' W 080°07'0 0.0
2019-Apr-06 13:30N 26°06' W 080°07'231419.1
2019-Apr-06 12:57N 24°38' W 076°11'231506.5
2019-Apr-06 12:30N 26°06' W 080°07'0 0.0
2019-Apr-06 11:58N 26°06' W 080°07'0 0.0
2019-Apr-06 11:30N 26°06' W 080°07'0 0.0
2019-Apr-06 10:57N 26°06' W 080°07'0 0.0
2019-Apr-06 10:30N 26°06' W 080°07'0 0.0
2019-Apr-06 09:59N 26°06' W 080°07'0 0.2
2019-Apr-06 09:30N 26°06' W 080°07'4 7.5
2019-Apr-06 09:00N 26°06' W 080°03'510.7
2019-Apr-06 08:31N 26°06' W 079°57'1111.2
2019-Apr-06 07:30N 25°56' W 079°51'816.1
2019-Apr-06 07:00N 25°48' W 079°52'816.3
2019-Apr-06 06:30N 25°40' W 079°53'816.4
2019-Apr-06 06:00N 25°32' W 079°54'816.4
2019-Apr-06 05:30N 25°24' W 079°54'47817.8
2019-Apr-05 02:43N 20°41' W 086°53'719.0
2019-Apr-05 02:22N 20°35' W 086°56'616.2
2019-Apr-05 02:01N 20°30' W 086°59'2 3.0
2019-Apr-05 01:29N 20°29' W 086°59'0 0.0
2019-Apr-05 00:58N 20°29' W 086°59'0 0.0
2019-Apr-05 00:28N 20°29' W 086°59'0 0.0
2019-Apr-05 00:00N 20°29' W 086°59'0 0.0
2019-Apr-04 23:30N 20°29' W 086°59'0 0.0
2019-Apr-04 23:00N 20°29' W 086°59'0 0.0
2019-Apr-04 22:30N 20°29' W 086°59'0 0.0
2019-Apr-04 22:00N 20°29' W 086°59'0 0.0
2019-Apr-04 21:30N 20°29' W 086°59'0 0.0
2019-Apr-04 21:00N 20°29' W 086°59'0 0.0
2019-Apr-04 20:31N 20°29' W 086°59'0 0.0
2019-Apr-04 19:59N 20°29' W 086°59'0 0.0
2019-Apr-04 19:29N 20°29' W 086°59'0 0.0
2019-Apr-04 19:00N 20°29' W 086°59'0 0.0
2019-Apr-04 18:28N 20°29' W 086°59'0 0.0
2019-Apr-04 18:00N 20°29' W 086°59'0 0.0
2019-Apr-04 17:29N 20°29' W 086°59'0 0.0
2019-Apr-04 16:59N 20°29' W 086°59'0 0.0
2019-Apr-04 16:28N 20°29' W 086°59'0 0.0
2019-Apr-04 15:58N 20°29' W 086°59'0 0.0
2019-Apr-04 15:28N 20°29' W 086°59'0 0.0
2019-Apr-04 14:58N 20°29' W 086°59'0 0.0
2019-Apr-04 14:30N 20°29' W 086°59'0 0.0
2019-Apr-04 13:59N 20°29' W 086°59'0 0.0
2019-Apr-04 13:29N 20°29' W 086°59'0 0.6
2019-Apr-04 13:01N 20°29' W 086°59'3 6.7
2019-Apr-04 12:31N 20°27' W 087°01'1018.8
2019-Apr-04 11:58N 20°17' W 087°04'  
Track history (hours):
 
Tides and Currents Weather Stations Pressure Air Temp Water Temp Dewpoint Dewpoint Depression Visibility Wind Speed Wind Dir Waves Ship Positions

Caribbean Princess

Operator: Princess Cruises

Last reported at 2019-Apr-13 23:08 UTC. Time now 2019-Apr-24 22:21 UTC.
Position N 26°16' W 079°31'.
Warning: this ship's position is 10 days out of date.

Type: Passenger vessel. MMSI: 310423000.

Date/timePositionNaut miles runAvg speedWind from/ knotsBaromVisibWave heightAir tempDewpointWater temp
2019-Apr-13 23:08N 26°16' W 079°31'320.0
2019-Apr-13 23:00N 26°15' W 079°33'1020.2
2019-Apr-13 22:30N 26°12' W 079°44'1020.1
2019-Apr-13 22:00N 26°09' W 079°55'918.0
2019-Apr-13 21:31N 26°06' W 080°04'3 5.5
2019-Apr-13 21:01N 26°06' W 080°07'0 0.0
2019-Apr-13 20:29N 26°06' W 080°07'0 0.0
2019-Apr-13 19:58N 26°06' W 080°07'0 0.0
2019-Apr-13 19:28N 26°06' W 080°07'0 0.0
2019-Apr-13 19:00N 26°06' W 080°07'506956.4
2019-Apr-13 18:29N 20°29' W 086°59'506978.5
2019-Apr-13 17:58N 26°06' W 080°07'0 0.0
2019-Apr-13 17:28N 26°06' W 080°07'0 0.0
2019-Apr-13 17:00N 26°06' W 080°07'0 0.0
2019-Apr-13 16:28N 26°06' W 080°07'0 0.0
2019-Apr-13 16:00N 26°06' W 080°07'0 0.0
2019-Apr-13 15:30N 26°06' W 080°07'0 0.0
2019-Apr-13 14:59N 26°06' W 080°07'0 0.0
2019-Apr-13 14:26N 26°06' W 080°07'0 0.0
2019-Apr-13 13:58N 26°06' W 080°07'0 0.0
2019-Apr-13 13:28N 26°06' W 080°07'0 0.0
2019-Apr-13 13:00N 26°06' W 080°07'231456.8
2019-Apr-13 12:29N 24°38' W 076°11'231451.1
2019-Apr-13 11:59N 26°06' W 080°07'0 0.0
2019-Apr-13 11:29N 26°06' W 080°07'0 0.0
2019-Apr-13 10:58N 26°06' W 080°07'0 0.0
2019-Apr-13 10:30N 26°06' W 080°07'0 0.3
2019-Apr-13 10:00N 26°06' W 080°07'3 6.3
2019-Apr-13 09:30N 26°06' W 080°04'612.3
2019-Apr-13 09:00N 26°06' W 079°57'713.9
2019-Apr-13 08:30N 26°06' W 079°49'713.7
2019-Apr-13 08:00N 26°07' W 079°41'1514.5
2019-Apr-13 07:00N 26°09' W 079°25'50018.5
2019-Apr-12 04:00N 22°42' W 071°06'45918.4 010 / 291015.110.8 23.821.427.0
2019-Apr-11 03:00N 18°54' W 064°00'5615.9 110 / 191015.410.8 25.020.727.0
2019-Apr-10 23:26N 18°11' W 063°22'818.9
2019-Apr-10 23:00N 18°05' W 063°16'916.4
2019-Apr-10 22:29N 18°01' W 063°08'5 9.3
2019-Apr-10 21:59N 18°01' W 063°03'0 0.0
2019-Apr-10 21:22N 18°01' W 063°03'0 0.0
2019-Apr-10 20:58N 18°01' W 063°03'0 0.0
2019-Apr-10 20:30N 18°01' W 063°03'0 0.0
2019-Apr-10 20:00N 18°01' W 063°03'0 0.0
2019-Apr-10 19:30N 18°01' W 063°03'0 0.0
2019-Apr-10 18:45N 18°01' W 063°03'0 0.0
2019-Apr-10 18:08N 18°01' W 063°03'0 0.0
2019-Apr-10 17:59N 18°01' W 063°03'0 0.0
2019-Apr-10 17:26N 18°01' W 063°03'0 0.0
2019-Apr-10 16:52N 18°01' W 063°03'0 0.0
2019-Apr-10 16:20N 18°01' W 063°03'0 0.0
2019-Apr-10 15:44N 18°01' W 063°03'0 0.0
2019-Apr-10 15:26N 18°01' W 063°03'0 0.0
2019-Apr-10 14:58N 18°01' W 063°03'0 0.0
2019-Apr-10 14:01N 18°01' W 063°03'0 0.0
2019-Apr-10 13:55N 18°01' W 063°03'0 0.0
2019-Apr-10 13:23N 18°01' W 063°03'0 0.0
2019-Apr-10 12:53N 18°01' W 063°03'0 0.0
2019-Apr-10 12:23N 18°01' W 063°03'0 0.0
2019-Apr-10 11:59N 18°01' W 063°03'0 0.0
2019-Apr-10 11:25N 18°01' W 063°03'0 0.0
2019-Apr-10 10:45N 18°01' W 063°03'16 8.5
2019-Apr-10 08:52N 18°02' W 063°20'612.2
2019-Apr-10 08:24N 18°02' W 063°26'511.8
2019-Apr-10 08:00N 18°03' W 063°31'712.2
2019-Apr-10 07:24N 18°03' W 063°38'3625.9
2019-Apr-10 06:00N 18°00' W 063°00'9140.4 090 / 261014.410.8 25.020.727.0
2019-Apr-10 03:45N 18°09' W 064°35'414.0
2019-Apr-10 03:29N 18°10' W 064°39'714.2
2019-Apr-10 03:00N 18°11' W 064°46'713.5
2019-Apr-10 02:31N 18°13' W 064°53'94545.1
2019-Apr-10 02:20N 16°39' W 064°52'100302.4
2019-Apr-10 02:00N 18°19' W 064°55'1 4.5
2019-Apr-10 01:40N 18°20' W 064°55'0 0.8
2019-Apr-10 01:29N 18°20' W 064°55'010.7
2019-Apr-10 01:28N 18°20' W 064°55'0 0.2
2019-Apr-10 01:00N 18°20' W 064°55'0 4.6
2019-Apr-10 00:59N 18°20' W 064°55'0 0.0
2019-Apr-10 00:30N 18°20' W 064°55'0 0.9
2019-Apr-10 00:24N 18°20' W 064°55'0 0.1
2019-Apr-10 00:00N 18°20' W 064°55'0 0.6
2019-Apr-09 23:51N 18°20' W 064°55'0 0.0
2019-Apr-09 23:28N 18°20' W 064°55'0 0.0
2019-Apr-09 23:00N 18°20' W 064°55'0 0.0
2019-Apr-09 22:30N 18°20' W 064°55'0 0.0
2019-Apr-09 22:00N 18°20' W 064°55'0 0.0
2019-Apr-09 21:28N 18°20' W 064°55'0 0.0
2019-Apr-09 20:52N 18°20' W 064°55'0 0.0
2019-Apr-09 20:22N 18°20' W 064°55'0 0.0
2019-Apr-09 20:00N 18°20' W 064°55'0 0.0
2019-Apr-09 19:30N 18°20' W 064°55'0 0.0
2019-Apr-09 19:00N 18°20' W 064°55'0 0.0
2019-Apr-09 18:30N 18°20' W 064°55'0 0.0
2019-Apr-09 18:00N 18°20' W 064°55'0 0.0
2019-Apr-09 17:27N 18°20' W 064°55'0 0.0
2019-Apr-09 16:38N 18°20' W 064°55'0 0.0
2019-Apr-09 16:28N 18°20' W 064°55'0 0.0
2019-Apr-09 15:58N 18°20' W 064°55'0 0.0
2019-Apr-09 15:29N 18°20' W 064°55'1 1.1
2019-Apr-09 15:00N 18°20' W 064°56'4 7.8
2019-Apr-09 14:30N 18°17' W 064°59'713.7
2019-Apr-09 14:00N 18°18' W 065°06'815.1
2019-Apr-09 13:30N 18°24' W 065°10'815.1
2019-Apr-09 13:00N 18°29' W 065°17'816.6
2019-Apr-09 12:30N 18°33' W 065°24'816.9
2019-Apr-09 12:00N 18°38' W 065°32'816.9
2019-Apr-09 11:31N 18°42' W 065°39'917.0
2019-Apr-09 11:01N 18°47' W 065°47'13616.9
2019-Apr-09 03:00N 20°00' W 067°48'38619.3 100 / 261018.110.8 25.020.727.0
2019-Apr-08 07:00N 23°48' W 073°24'7318.1 080 / 251017.7 5.4 25.020.727.0
2019-Apr-08 03:00N 23°18' W 074°36'22210.1 080 / 251019.710.8 24.521.727.0
2019-Apr-07 05:00N 25°42' W 077°42'12216.3 100 / 251021.110.8 24.521.727.0
2019-Apr-06 21:31N 26°06' W 079°55'815.6
2019-Apr-06 21:00N 26°06' W 080°04'3 6.1
2019-Apr-06 20:30N 26°06' W 080°07'0 0.1
2019-Apr-06 20:00N 26°06' W 080°07'0 0.2
2019-Apr-06 19:34N 26°06' W 080°07'0 1.5
2019-Apr-06 19:30N 26°06' W 080°07'0 1.3
2019-Apr-06 19:26N 26°06' W 080°07'0 0.2
2019-Apr-06 19:00N 26°06' W 080°07'0101.0
2019-Apr-06 19:00N 26°06' W 080°07'0 0.1
2019-Apr-06 18:30N 26°06' W 080°07'057.2
2019-Apr-06 18:30N 26°06' W 080°07'0 0.0
2019-Apr-06 18:00N 26°06' W 080°07'0 0.0
2019-Apr-06 17:30N 26°06' W 080°07'0 0.0
2019-Apr-06 17:00N 26°06' W 080°07'0 0.0
2019-Apr-06 16:30N 26°06' W 080°07'0 0.0
2019-Apr-06 16:00N 26°06' W 080°07'0 0.0
2019-Apr-06 15:30N 26°06' W 080°07'0 0.4
2019-Apr-06 15:07N 26°06' W 080°07'0 1.3
2019-Apr-06 15:00N 26°06' W 080°07'0 3.2
2019-Apr-06 14:59N 26°06' W 080°07'0 0.1
2019-Apr-06 14:30N 26°06' W 080°07'0 0.0
2019-Apr-06 14:00N 26°06' W 080°07'0 0.0
2019-Apr-06 13:30N 26°06' W 080°07'231419.1
2019-Apr-06 12:57N 24°38' W 076°11'231506.5
2019-Apr-06 12:30N 26°06' W 080°07'0 0.0
2019-Apr-06 11:58N 26°06' W 080°07'0 0.0
2019-Apr-06 11:30N 26°06' W 080°07'0 0.0
2019-Apr-06 10:57N 26°06' W 080°07'0 0.0
2019-Apr-06 10:30N 26°06' W 080°07'0 0.0
2019-Apr-06 09:59N 26°06' W 080°07'0 0.2
2019-Apr-06 09:30N 26°06' W 080°07'4 7.5
2019-Apr-06 09:00N 26°06' W 080°03'510.7
2019-Apr-06 08:31N 26°06' W 079°57'1111.2
2019-Apr-06 07:30N 25°56' W 079°51'816.1
2019-Apr-06 07:00N 25°48' W 079°52'816.3
2019-Apr-06 06:30N 25°40' W 079°53'816.4
2019-Apr-06 06:00N 25°32' W 079°54'816.4
2019-Apr-06 05:30N 25°24' W 079°54'47817.8
2019-Apr-05 02:43N 20°41' W 086°53'719.0
2019-Apr-05 02:22N 20°35' W 086°56'616.2
2019-Apr-05 02:01N 20°30' W 086°59'2 3.0
2019-Apr-05 01:29N 20°29' W 086°59'0 0.0
2019-Apr-05 00:58N 20°29' W 086°59'0 0.0
2019-Apr-05 00:28N 20°29' W 086°59'0 0.0
2019-Apr-05 00:00N 20°29' W 086°59'0 0.0
2019-Apr-04 23:30N 20°29' W 086°59'0 0.0
2019-Apr-04 23:00N 20°29' W 086°59'0 0.0
2019-Apr-04 22:30N 20°29' W 086°59'0 0.0
2019-Apr-04 22:00N 20°29' W 086°59'0 0.0
2019-Apr-04 21:30N 20°29' W 086°59'0 0.0
2019-Apr-04 21:00N 20°29' W 086°59'0 0.0
2019-Apr-04 20:31N 20°29' W 086°59'0 0.0
2019-Apr-04 19:59N 20°29' W 086°59'0 0.0
2019-Apr-04 19:29N 20°29' W 086°59'0 0.0
2019-Apr-04 19:00N 20°29' W 086°59'0 0.0
2019-Apr-04 18:28N 20°29' W 086°59'0 0.0
2019-Apr-04 18:00N 20°29' W 086°59'0 0.0
2019-Apr-04 17:29N 20°29' W 086°59'0 0.0
2019-Apr-04 16:59N 20°29' W 086°59'0 0.0
2019-Apr-04 16:28N 20°29' W 086°59'0 0.0
2019-Apr-04 15:58N 20°29' W 086°59'0 0.0
2019-Apr-04 15:28N 20°29' W 086°59'0 0.0
2019-Apr-04 14:58N 20°29' W 086°59'0 0.0
2019-Apr-04 14:30N 20°29' W 086°59'0 0.0
2019-Apr-04 13:59N 20°29' W 086°59'0 0.0
2019-Apr-04 13:29N 20°29' W 086°59'0 0.6
2019-Apr-04 13:01N 20°29' W 086°59'3 6.7
2019-Apr-04 12:31N 20°27' W 087°01'1018.8
2019-Apr-04 11:58N 20°17' W 087°04'  

Dump ship's entire track history